Hauptseite
METAR-TAF:

METAR-TAF

Flughäfen :

Wilkes-Barre/Scranton International Airport

Wilkes-Barre / Scranton, Pennsylvania, Vereinigte Staaten

Breite: 41-20-20N, Länge: 075-43-36W, Höhe: 293 m

Beobachtung

Neuester Wetterbericht von vor 1 Stunde und 10 Minuten, um 23:54 UTC
Wind 16 kt aus West/Südwest
Temperatur -1°C
Luftfeuchtigkeit 43%
Luftdruck 1027 hPa
Sichtweite: 16.1 km
Himmel klar

METAR: KAVP 112354Z 25016KT 10SM CLR M01/M12 A3034 RMK AO2 SLP284 T10111122 10022 21011 53033

Zeit: 20:04 (01:04 UTC)

Prognose

Neuester Wetterbericht von vor 1 Stunde und 36 Minuten, um 23:28 UTC
Gültige Prognose vom 12 um 00 UTC bis 12 um 24 UTC
Wind 10 kt aus West/Südwest, Böen bis zu 18 kt
Sichtweite: 10 km
Leicht bewölkt in der Höhe von 4500 ft
Ab 12 um 0400 UTC
Wind 8 kt aus Nordwest
Sichtweite: 10 km
Himmel klar

TAF: KAVP 112328Z 1200/1224 24010G18KT P6SM FEW045 FM120400 31008KT P6SM SKC

Wetterbeobachtungen und Prognosen von mehr als 4000 Flughäfen (METAR und TAF Bericht).

Die verfügbaren Stationen werden durch gelbe und rote Markierungen auf der Karte dargestellt.

Führen Sie die Maus auf sie, um den Namen der Station zu sehen.

Darauf klicken, um die Beobachtung von Wetterbeobachtungen und Prognosen zu sehen.

Um die Karte zu ändern : klicken Sie auf den grünen Tasten mit einem schwarzen Kreuz Zum Vergrößern, auf den grünen Button mit einem Gedankenstrich zu verkleinern, oder auf die grünen Pfeile für benachbarte Karten.


METAR-TAF: